sensor_id;sensor_type;location;lat;lon;timestamp;P1;durP1;ratioP1;P2;durP2;ratioP2
60100;SDS011;45978;53.646;55.930;2022-09-30T00:00:43;0.70;;;0.68;;
60100;SDS011;45978;53.646;55.930;2022-09-30T00:01:46;0.50;;;0.50;;
60100;SDS011;45978;53.646;55.930;2022-09-30T00:02:50;0.60;;;0.60;;
60100;SDS011;45978;53.646;55.930;2022-09-30T00:03:52;0.60;;;0.60;;
60100;SDS011;45978;53.646;55.930;2022-09-30T00:04:56;0.60;;;0.60;;
60100;SDS011;45978;53.646;55.930;2022-09-30T00:05:58;0.50;;;0.50;;
60100;SDS011;45978;53.646;55.930;2022-09-30T00:07:06;0.60;;;0.60;;
60100;SDS011;45978;53.646;55.930;2022-09-30T00:08:07;1.15;;;0.60;;
60100;SDS011;45978;53.646;55.930;2022-09-30T00:09:09;0.60;;;0.60;;
60100;SDS011;45978;53.646;55.930;2022-09-30T00:10:13;0.70;;;0.70;;
60100;SDS011;45978;53.646;55.930;2022-09-30T00:11:23;0.60;;;0.60;;
60100;SDS011;45978;53.646;55.930;2022-09-30T00:12:27;0.60;;;0.60;;
60100;SDS011;45978;53.646;55.930;2022-09-30T00:13:29;0.52;;;0.52;;
60100;SDS011;45978;53.646;55.930;2022-09-30T00:14:38;0.73;;;0.60;;
60100;SDS011;45978;53.646;55.930;2022-09-30T00:15:39;0.52;;;0.52;;
60100;SDS011;45978;53.646;55.930;2022-09-30T00:16:41;0.55;;;0.55;;
60100;SDS011;45978;53.646;55.930;2022-09-30T00:17:43;1.50;;;0.50;;
60100;SDS011;45978;53.646;55.930;2022-09-30T00:18:45;0.60;;;0.60;;
60100;SDS011;45978;53.646;55.930;2022-09-30T00:19:50;0.70;;;0.70;;
60100;SDS011;45978;53.646;55.930;2022-09-30T00:20:52;0.60;;;0.60;;
60100;SDS011;45978;53.646;55.930;2022-09-30T00:21:57;0.70;;;0.70;;
60100;SDS011;45978;53.646;55.930;2022-09-30T00:22:58;0.60;;;0.60;;
60100;SDS011;45978;53.646;55.930;2022-09-30T00:24:02;0.60;;;0.60;;
60100;SDS011;45978;53.646;55.930;2022-09-30T00:25:04;0.50;;;0.50;;
60100;SDS011;45978;53.646;55.930;2022-09-30T00:26:07;0.52;;;0.52;;
60100;SDS011;45978;53.646;55.930;2022-09-30T00:27:12;0.50;;;0.50;;
60100;SDS011;45978;53.646;55.930;2022-09-30T00:28:17;1.42;;;0.60;;
60100;SDS011;45978;53.646;55.930;2022-09-30T00:29:23;0.43;;;0.43;;
60100;SDS011;45978;53.646;55.930;2022-09-30T00:30:27;0.50;;;0.50;;
60100;SDS011;45978;53.646;55.930;2022-09-30T00:31:30;0.50;;;0.50;;
60100;SDS011;45978;53.646;55.930;2022-09-30T00:32:35;0.60;;;0.60;;
60100;SDS011;45978;53.646;55.930;2022-09-30T00:33:38;0.60;;;0.60;;
60100;SDS011;45978;53.646;55.930;2022-09-30T00:34:41;0.50;;;0.50;;
60100;SDS011;45978;53.646;55.930;2022-09-30T00:35:44;0.70;;;0.40;;
60100;SDS011;45978;53.646;55.930;2022-09-30T00:36:48;1.83;;;0.80;;
60100;SDS011;45978;53.646;55.930;2022-09-30T00:37:51;0.40;;;0.40;;
60100;SDS011;45978;53.646;55.930;2022-09-30T00:38:52;0.73;;;0.73;;
60100;SDS011;45978;53.646;55.930;2022-09-30T00:39:58;0.60;;;0.60;;
60100;SDS011;45978;53.646;55.930;2022-09-30T00:41:01;0.50;;;0.50;;
60100;SDS011;45978;53.646;55.930;2022-09-30T00:42:10;0.40;;;0.40;;
60100;SDS011;45978;53.646;55.930;2022-09-30T00:43:16;0.55;;;0.55;;
60100;SDS011;45978;53.646;55.930;2022-09-30T00:45:43;0.60;;;0.60;;
60100;SDS011;45978;53.646;55.930;2022-09-30T00:46:48;0.60;;;0.60;;
60100;SDS011;45978;53.646;55.930;2022-09-30T00:47:52;1.85;;;0.60;;
60100;SDS011;45978;53.646;55.930;2022-09-30T00:48:57;0.60;;;0.60;;
60100;SDS011;45978;53.646;55.930;2022-09-30T00:50:16;0.50;;;0.50;;
60100;SDS011;45978;53.646;55.930;2022-09-30T00:51:38;1.98;;;0.60;;
60100;SDS011;45978;53.646;55.930;2022-09-30T00:52:45;0.50;;;0.50;;
60100;SDS011;45978;53.646;55.930;2022-09-30T00:53:56;0.52;;;0.52;;
60100;SDS011;45978;53.646;55.930;2022-09-30T00:55:06;0.60;;;0.60;;
60100;SDS011;45978;53.646;55.930;2022-09-30T00:56:18;3.42;;;0.88;;
60100;SDS011;45978;53.646;55.930;2022-09-30T00:57:25;0.50;;;0.50;;
60100;SDS011;45978;53.646;55.930;2022-09-30T00:58:36;0.40;;;0.40;;
60100;SDS011;45978;53.646;55.930;2022-09-30T01:00:07;0.98;;;0.50;;
60100;SDS011;45978;53.646;55.930;2022-09-30T01:01:11;0.60;;;0.60;;
60100;SDS011;45978;53.646;55.930;2022-09-30T01:02:14;0.70;;;0.70;;
60100;SDS011;45978;53.646;55.930;2022-09-30T01:03:17;0.60;;;0.60;;
60100;SDS011;45978;53.646;55.930;2022-09-30T01:04:23;1.40;;;0.60;;
60100;SDS011;45978;53.646;55.930;2022-09-30T01:05:27;0.60;;;0.60;;
60100;SDS011;45978;53.646;55.930;2022-09-30T01:06:33;1.42;;;0.65;;
60100;SDS011;45978;53.646;55.930;2022-09-30T01:07:35;0.55;;;0.55;;
60100;SDS011;45978;53.646;55.930;2022-09-30T01:08:39;0.60;;;0.60;;
60100;SDS011;45978;53.646;55.930;2022-09-30T01:09:42;0.70;;;0.70;;
60100;SDS011;45978;53.646;55.930;2022-09-30T01:10:45;3.30;;;0.60;;
60100;SDS011;45978;53.646;55.930;2022-09-30T01:11:47;1.40;;;0.57;;
60100;SDS011;45978;53.646;55.930;2022-09-30T01:12:49;1.95;;;0.57;;
60100;SDS011;45978;53.646;55.930;2022-09-30T01:13:53;0.70;;;0.70;;
60100;SDS011;45978;53.646;55.930;2022-09-30T01:14:57;0.60;;;0.60;;
60100;SDS011;45978;53.646;55.930;2022-09-30T01:16:11;0.40;;;0.40;;
60100;SDS011;45978;53.646;55.930;2022-09-30T01:17:52;2.17;;;0.70;;
60100;SDS011;45978;53.646;55.930;2022-09-30T01:30:07;4.43;;;0.80;;
60100;SDS011;45978;53.646;55.930;2022-09-30T01:38:00;1.65;;;0.70;;
60100;SDS011;45978;53.646;55.930;2022-09-30T01:39:26;0.57;;;0.57;;
60100;SDS011;45978;53.646;55.930;2022-09-30T01:43:09;3.55;;;0.60;;
60100;SDS011;45978;53.646;55.930;2022-09-30T01:45:40;1.30;;;0.70;;
60100;SDS011;45978;53.646;55.930;2022-09-30T01:46:50;0.63;;;0.63;;
60100;SDS011;45978;53.646;55.930;2022-09-30T01:49:26;7.22;;;0.60;;
60100;SDS011;45978;53.646;55.930;2022-09-30T01:50:48;6.10;;;0.77;;
60100;SDS011;45978;53.646;55.930;2022-09-30T01:52:07;3.60;;;0.70;;
60100;SDS011;45978;53.646;55.930;2022-09-30T01:55:52;2.35;;;0.73;;
60100;SDS011;45978;53.646;55.930;2022-09-30T01:58:13;9.27;;;1.15;;
60100;SDS011;45978;53.646;55.930;2022-09-30T01:59:41;5.35;;;0.60;;
60100;SDS011;45978;53.646;55.930;2022-09-30T02:00:48;3.00;;;1.02;;
60100;SDS011;45978;53.646;55.930;2022-09-30T02:02:01;5.05;;;1.10;;
60100;SDS011;45978;53.646;55.930;2022-09-30T02:03:33;1.98;;;0.80;;
60100;SDS011;45978;53.646;55.930;2022-09-30T02:04:44;3.42;;;0.90;;
60100;SDS011;45978;53.646;55.930;2022-09-30T02:05:56;1.60;;;1.20;;
60100;SDS011;45978;53.646;55.930;2022-09-30T02:07:05;1.80;;;1.00;;
60100;SDS011;45978;53.646;55.930;2022-09-30T02:08:16;5.47;;;1.77;;
60100;SDS011;45978;53.646;55.930;2022-09-30T02:11:14;2.10;;;1.77;;
60100;SDS011;45978;53.646;55.930;2022-09-30T02:11:53;4.53;;;1.70;;
60100;SDS011;45978;53.646;55.930;2022-09-30T02:13:05;3.92;;;1.35;;
60100;SDS011;45978;53.646;55.930;2022-09-30T02:15:53;8.40;;;1.73;;
60100;SDS011;45978;53.646;55.930;2022-09-30T02:17:32;2.90;;;1.70;;
60100;SDS011;45978;53.646;55.930;2022-09-30T02:19:41;1.80;;;0.95;;
60100;SDS011;45978;53.646;55.930;2022-09-30T02:20:46;1.38;;;0.73;;
60100;SDS011;45978;53.646;55.930;2022-09-30T02:21:57;0.70;;;0.57;;
60100;SDS011;45978;53.646;55.930;2022-09-30T02:23:09;3.42;;;1.20;;
60100;SDS011;45978;53.646;55.930;2022-09-30T02:24:16;4.75;;;1.10;;
60100;SDS011;45978;53.646;55.930;2022-09-30T02:25:22;17.35;;;1.23;;
60100;SDS011;45978;53.646;55.930;2022-09-30T02:26:28;1.27;;;0.73;;
60100;SDS011;45978;53.646;55.930;2022-09-30T02:27:40;0.65;;;0.50;;
60100;SDS011;45978;53.646;55.930;2022-09-30T02:28:48;2.38;;;0.60;;
60100;SDS011;45978;53.646;55.930;2022-09-30T02:29:58;1.67;;;0.68;;
60100;SDS011;45978;53.646;55.930;2022-09-30T02:31:04;3.13;;;0.65;;
60100;SDS011;45978;53.646;55.930;2022-09-30T02:32:22;0.60;;;0.60;;
60100;SDS011;45978;53.646;55.930;2022-09-30T02:33:34;1.05;;;0.52;;
60100;SDS011;45978;53.646;55.930;2022-09-30T02:34:42;3.60;;;1.48;;
60100;SDS011;45978;53.646;55.930;2022-09-30T02:35:55;1.63;;;0.50;;
60100;SDS011;45978;53.646;55.930;2022-09-30T02:37:09;1.95;;;0.57;;
60100;SDS011;45978;53.646;55.930;2022-09-30T02:38:18;5.63;;;0.70;;
60100;SDS011;45978;53.646;55.930;2022-09-30T02:39:42;1.60;;;0.60;;
60100;SDS011;45978;53.646;55.930;2022-09-30T02:42:21;2.65;;;0.70;;
60100;SDS011;45978;53.646;55.930;2022-09-30T02:43:29;0.47;;;0.40;;
60100;SDS011;45978;53.646;55.930;2022-09-30T02:44:36;1.00;;;0.50;;
60100;SDS011;45978;53.646;55.930;2022-09-30T02:45:52;5.18;;;0.70;;
60100;SDS011;45978;53.646;55.930;2022-09-30T02:49:04;0.85;;;0.50;;
60100;SDS011;45978;53.646;55.930;2022-09-30T02:50:10;0.75;;;0.60;;
60100;SDS011;45978;53.646;55.930;2022-09-30T02:51:25;0.60;;;0.60;;
60100;SDS011;45978;53.646;55.930;2022-09-30T02:54:23;0.50;;;0.50;;
60100;SDS011;45978;53.646;55.930;2022-09-30T02:58:54;0.57;;;0.57;;
60100;SDS011;45978;53.646;55.930;2022-09-30T03:00:04;0.60;;;0.60;;
60100;SDS011;45978;53.646;55.930;2022-09-30T03:01:13;3.08;;;0.50;;
60100;SDS011;45978;53.646;55.930;2022-09-30T03:02:18;0.70;;;0.70;;
60100;SDS011;45978;53.646;55.930;2022-09-30T03:03:27;1.08;;;0.57;;
60100;SDS011;45978;53.646;55.930;2022-09-30T03:04:33;0.60;;;0.60;;
60100;SDS011;45978;53.646;55.930;2022-09-30T03:05:42;1.60;;;0.68;;
60100;SDS011;45978;53.646;55.930;2022-09-30T03:06:46;0.50;;;0.50;;
60100;SDS011;45978;53.646;55.930;2022-09-30T03:07:51;0.43;;;0.43;;
60100;SDS011;45978;53.646;55.930;2022-09-30T03:09:02;0.95;;;0.65;;
60100;SDS011;45978;53.646;55.930;2022-09-30T03:10:13;1.30;;;0.70;;
60100;SDS011;45978;53.646;55.930;2022-09-30T03:11:42;0.60;;;0.60;;
60100;SDS011;45978;53.646;55.930;2022-09-30T03:19:49;0.70;;;0.60;;
60100;SDS011;45978;53.646;55.930;2022-09-30T03:21:06;0.90;;;0.90;;
60100;SDS011;45978;53.646;55.930;2022-09-30T03:28:28;1.50;;;0.70;;
60100;SDS011;45978;53.646;55.930;2022-09-30T03:36:33;4.65;;;0.80;;
60100;SDS011;45978;53.646;55.930;2022-09-30T03:39:01;1.08;;;0.52;;
60100;SDS011;45978;53.646;55.930;2022-09-30T03:40:34;0.45;;;0.45;;
60100;SDS011;45978;53.646;55.930;2022-09-30T03:41:53;3.95;;;0.60;;
60100;SDS011;45978;53.646;55.930;2022-09-30T03:43:19;3.40;;;0.50;;
60100;SDS011;45978;53.646;55.930;2022-09-30T03:47:19;0.70;;;0.60;;
60100;SDS011;45978;53.646;55.930;2022-09-30T03:48:26;6.55;;;0.60;;
60100;SDS011;45978;53.646;55.930;2022-09-30T03:49:34;1.27;;;0.68;;
60100;SDS011;45978;53.646;55.930;2022-09-30T03:50:43;4.50;;;0.50;;
60100;SDS011;45978;53.646;55.930;2022-09-30T03:51:51;4.03;;;0.65;;
60100;SDS011;45978;53.646;55.930;2022-09-30T03:53:00;1.55;;;0.70;;
60100;SDS011;45978;53.646;55.930;2022-09-30T03:54:19;1.70;;;0.70;;
60100;SDS011;45978;53.646;55.930;2022-09-30T03:55:25;2.65;;;0.80;;
60100;SDS011;45978;53.646;55.930;2022-09-30T03:56:31;0.80;;;0.65;;
60100;SDS011;45978;53.646;55.930;2022-09-30T03:57:35;3.05;;;0.80;;
60100;SDS011;45978;53.646;55.930;2022-09-30T03:58:45;4.55;;;0.65;;
60100;SDS011;45978;53.646;55.930;2022-09-30T03:59:49;3.72;;;0.65;;
60100;SDS011;45978;53.646;55.930;2022-09-30T04:00:51;0.63;;;0.60;;
60100;SDS011;45978;53.646;55.930;2022-09-30T04:01:57;3.22;;;0.68;;
60100;SDS011;45978;53.646;55.930;2022-09-30T04:03:05;0.95;;;0.70;;
60100;SDS011;45978;53.646;55.930;2022-09-30T04:04:49;3.63;;;0.70;;
60100;SDS011;45978;53.646;55.930;2022-09-30T04:11:26;0.50;;;0.50;;
60100;SDS011;45978;53.646;55.930;2022-09-30T04:12:40;3.40;;;0.70;;
60100;SDS011;45978;53.646;55.930;2022-09-30T04:13:55;0.80;;;0.80;;
60100;SDS011;45978;53.646;55.930;2022-09-30T04:15:09;0.60;;;0.60;;
60100;SDS011;45978;53.646;55.930;2022-09-30T04:16:17;0.63;;;0.63;;
60100;SDS011;45978;53.646;55.930;2022-09-30T04:17:23;0.80;;;0.80;;
60100;SDS011;45978;53.646;55.930;2022-09-30T04:20:02;1.42;;;0.60;;
60100;SDS011;45978;53.646;55.930;2022-09-30T04:21:28;4.22;;;0.82;;
60100;SDS011;45978;53.646;55.930;2022-09-30T04:22:38;0.47;;;0.47;;
60100;SDS011;45978;53.646;55.930;2022-09-30T04:23:47;0.50;;;0.50;;
60100;SDS011;45978;53.646;55.930;2022-09-30T04:24:50;0.40;;;0.40;;
60100;SDS011;45978;53.646;55.930;2022-09-30T04:25:53;0.95;;;0.70;;
60100;SDS011;45978;53.646;55.930;2022-09-30T04:26:55;8.98;;;0.63;;
60100;SDS011;45978;53.646;55.930;2022-09-30T04:27:58;0.60;;;0.60;;
60100;SDS011;45978;53.646;55.930;2022-09-30T04:29:25;0.30;;;0.30;;
60100;SDS011;45978;53.646;55.930;2022-09-30T04:30:34;2.28;;;0.50;;
60100;SDS011;45978;53.646;55.930;2022-09-30T04:31:39;4.20;;;0.60;;
60100;SDS011;45978;53.646;55.930;2022-09-30T04:32:46;0.85;;;0.60;;
60100;SDS011;45978;53.646;55.930;2022-09-30T04:33:48;2.25;;;0.80;;
60100;SDS011;45978;53.646;55.930;2022-09-30T04:34:51;2.70;;;0.63;;
60100;SDS011;45978;53.646;55.930;2022-09-30T04:35:54;3.58;;;0.80;;
60100;SDS011;45978;53.646;55.930;2022-09-30T04:36:57;0.63;;;0.63;;
60100;SDS011;45978;53.646;55.930;2022-09-30T04:38:00;1.95;;;0.80;;
60100;SDS011;45978;53.646;55.930;2022-09-30T04:39:02;4.32;;;0.70;;
60100;SDS011;45978;53.646;55.930;2022-09-30T04:40:04;4.03;;;0.82;;
60100;SDS011;45978;53.646;55.930;2022-09-30T04:41:07;0.60;;;0.60;;
60100;SDS011;45978;53.646;55.930;2022-09-30T04:42:15;3.50;;;1.05;;
60100;SDS011;45978;53.646;55.930;2022-09-30T04:43:18;1.23;;;0.70;;
60100;SDS011;45978;53.646;55.930;2022-09-30T04:44:23;3.33;;;0.75;;
60100;SDS011;45978;53.646;55.930;2022-09-30T04:45:26;0.70;;;0.60;;
60100;SDS011;45978;53.646;55.930;2022-09-30T04:46:28;0.70;;;0.70;;
60100;SDS011;45978;53.646;55.930;2022-09-30T04:47:29;1.65;;;0.70;;
60100;SDS011;45978;53.646;55.930;2022-09-30T04:48:31;0.95;;;0.50;;
60100;SDS011;45978;53.646;55.930;2022-09-30T04:49:32;0.70;;;0.70;;
60100;SDS011;45978;53.646;55.930;2022-09-30T04:50:33;0.95;;;0.77;;
60100;SDS011;45978;53.646;55.930;2022-09-30T04:51:35;2.13;;;0.90;;
60100;SDS011;45978;53.646;55.930;2022-09-30T04:52:40;3.67;;;1.67;;
60100;SDS011;45978;53.646;55.930;2022-09-30T04:53:43;2.65;;;0.80;;
60100;SDS011;45978;53.646;55.930;2022-09-30T04:54:45;3.13;;;0.70;;
60100;SDS011;45978;53.646;55.930;2022-09-30T04:55:47;0.50;;;0.50;;
60100;SDS011;45978;53.646;55.930;2022-09-30T04:56:49;6.78;;;1.70;;
60100;SDS011;45978;53.646;55.930;2022-09-30T04:57:52;1.50;;;1.00;;
60100;SDS011;45978;53.646;55.930;2022-09-30T04:58:53;3.08;;;0.60;;
60100;SDS011;45978;53.646;55.930;2022-09-30T04:59:55;0.85;;;0.40;;
60100;SDS011;45978;53.646;55.930;2022-09-30T05:00:58;1.13;;;0.50;;
60100;SDS011;45978;53.646;55.930;2022-09-30T05:02:04;2.15;;;0.80;;
60100;SDS011;45978;53.646;55.930;2022-09-30T05:03:06;0.85;;;0.60;;
60100;SDS011;45978;53.646;55.930;2022-09-30T05:04:07;0.60;;;0.60;;
60100;SDS011;45978;53.646;55.930;2022-09-30T05:05:09;0.60;;;0.50;;
60100;SDS011;45978;53.646;55.930;2022-09-30T05:06:11;7.13;;;1.00;;
60100;SDS011;45978;53.646;55.930;2022-09-30T05:07:13;1.20;;;0.63;;
60100;SDS011;45978;53.646;55.930;2022-09-30T05:08:15;2.85;;;0.93;;
60100;SDS011;45978;53.646;55.930;2022-09-30T05:09:16;2.55;;;0.93;;
60100;SDS011;45978;53.646;55.930;2022-09-30T05:10:17;0.80;;;0.75;;
60100;SDS011;45978;53.646;55.930;2022-09-30T05:11:19;0.80;;;0.80;;
60100;SDS011;45978;53.646;55.930;2022-09-30T05:12:21;3.03;;;0.85;;
60100;SDS011;45978;53.646;55.930;2022-09-30T05:13:32;1.83;;;1.00;;
60100;SDS011;45978;53.646;55.930;2022-09-30T05:14:38;3.13;;;1.02;;
60100;SDS011;45978;53.646;55.930;2022-09-30T05:15:39;1.83;;;0.80;;
60100;SDS011;45978;53.646;55.930;2022-09-30T05:16:40;2.85;;;1.23;;
60100;SDS011;45978;53.646;55.930;2022-09-30T05:17:42;3.30;;;1.70;;
60100;SDS011;45978;53.646;55.930;2022-09-30T05:18:43;2.55;;;1.08;;
60100;SDS011;45978;53.646;55.930;2022-09-30T05:19:46;0.60;;;0.60;;
60100;SDS011;45978;53.646;55.930;2022-09-30T05:20:48;0.63;;;0.63;;
60100;SDS011;45978;53.646;55.930;2022-09-30T05:21:50;0.52;;;0.52;;
60100;SDS011;45978;53.646;55.930;2022-09-30T05:22:55;6.85;;;1.08;;
60100;SDS011;45978;53.646;55.930;2022-09-30T05:23:56;0.43;;;0.43;;
60100;SDS011;45978;53.646;55.930;2022-09-30T05:24:58;0.50;;;0.50;;
60100;SDS011;45978;53.646;55.930;2022-09-30T05:26:00;0.65;;;0.65;;
60100;SDS011;45978;53.646;55.930;2022-09-30T05:27:06;0.60;;;0.60;;
60100;SDS011;45978;53.646;55.930;2022-09-30T05:28:07;1.15;;;1.02;;
60100;SDS011;45978;53.646;55.930;2022-09-30T05:29:08;2.38;;;1.35;;
60100;SDS011;45978;53.646;55.930;2022-09-30T05:30:10;3.92;;;2.40;;
60100;SDS011;45978;53.646;55.930;2022-09-30T05:31:11;4.32;;;1.00;;
60100;SDS011;45978;53.646;55.930;2022-09-30T05:32:13;0.85;;;0.85;;
60100;SDS011;45978;53.646;55.930;2022-09-30T05:33:14;1.13;;;0.80;;
60100;SDS011;45978;53.646;55.930;2022-09-30T05:34:16;1.38;;;0.52;;
60100;SDS011;45978;53.646;55.930;2022-09-30T05:35:18;1.42;;;0.55;;
60100;SDS011;45978;53.646;55.930;2022-09-30T05:36:20;0.80;;;0.80;;
60100;SDS011;45978;53.646;55.930;2022-09-30T05:37:21;2.25;;;0.80;;
60100;SDS011;45978;53.646;55.930;2022-09-30T05:38:23;2.95;;;1.13;;
60100;SDS011;45978;53.646;55.930;2022-09-30T05:39:24;1.02;;;0.80;;
60100;SDS011;45978;53.646;55.930;2022-09-30T05:40:25;2.20;;;0.70;;
60100;SDS011;45978;53.646;55.930;2022-09-30T05:41:27;0.90;;;0.80;;
60100;SDS011;45978;53.646;55.930;2022-09-30T05:42:30;0.75;;;0.75;;
60100;SDS011;45978;53.646;55.930;2022-09-30T05:43:32;1.73;;;0.70;;
60100;SDS011;45978;53.646;55.930;2022-09-30T05:44:35;3.20;;;0.98;;
60100;SDS011;45978;53.646;55.930;2022-09-30T05:45:37;2.47;;;1.17;;
60100;SDS011;45978;53.646;55.930;2022-09-30T05:46:38;1.08;;;0.98;;
60100;SDS011;45978;53.646;55.930;2022-09-30T05:47:40;2.40;;;1.40;;
60100;SDS011;45978;53.646;55.930;2022-09-30T05:48:42;1.77;;;1.20;;
60100;SDS011;45978;53.646;55.930;2022-09-30T05:49:44;1.73;;;1.52;;
60100;SDS011;45978;53.646;55.930;2022-09-30T05:50:46;2.55;;;1.70;;
60100;SDS011;45978;53.646;55.930;2022-09-30T05:51:50;5.25;;;2.25;;
60100;SDS011;45978;53.646;55.930;2022-09-30T05:52:52;2.17;;;1.17;;
60100;SDS011;45978;53.646;55.930;2022-09-30T05:53:53;1.00;;;0.95;;
60100;SDS011;45978;53.646;55.930;2022-09-30T05:54:55;1.73;;;1.20;;
60100;SDS011;45978;53.646;55.930;2022-09-30T05:56:06;1.40;;;1.30;;
60100;SDS011;45978;53.646;55.930;2022-09-30T05:57:08;1.17;;;1.00;;
60100;SDS011;45978;53.646;55.930;2022-09-30T05:58:10;2.90;;;1.27;;
60100;SDS011;45978;53.646;55.930;2022-09-30T05:59:13;7.93;;;1.40;;
60100;SDS011;45978;53.646;55.930;2022-09-30T06:00:14;3.33;;;1.60;;
60100;SDS011;45978;53.646;55.930;2022-09-30T06:01:16;2.55;;;1.75;;
60100;SDS011;45978;53.646;55.930;2022-09-30T06:02:18;0.90;;;0.80;;
60100;SDS011;45978;53.646;55.930;2022-09-30T06:03:20;6.75;;;1.23;;
60100;SDS011;45978;53.646;55.930;2022-09-30T06:04:21;1.02;;;0.80;;
60100;SDS011;45978;53.646;55.930;2022-09-30T06:05:23;1.55;;;1.45;;
60100;SDS011;45978;53.646;55.930;2022-09-30T06:06:25;1.48;;;1.35;;
60100;SDS011;45978;53.646;55.930;2022-09-30T06:07:26;1.13;;;1.02;;
60100;SDS011;45978;53.646;55.930;2022-09-30T06:08:28;3.63;;;0.90;;
60100;SDS011;45978;53.646;55.930;2022-09-30T06:09:30;4.95;;;1.50;;
60100;SDS011;45978;53.646;55.930;2022-09-30T06:10:33;2.45;;;1.60;;
60100;SDS011;45978;53.646;55.930;2022-09-30T06:11:35;10.23;;;4.63;;
60100;SDS011;45978;53.646;55.930;2022-09-30T06:12:37;2.17;;;1.73;;
60100;SDS011;45978;53.646;55.930;2022-09-30T06:13:40;5.82;;;3.55;;
60100;SDS011;45978;53.646;55.930;2022-09-30T06:17:06;4.88;;;2.67;;
60100;SDS011;45978;53.646;55.930;2022-09-30T06:18:18;4.80;;;3.45;;
60100;SDS011;45978;53.646;55.930;2022-09-30T06:19:58;2.65;;;2.45;;
60100;SDS011;45978;53.646;55.930;2022-09-30T06:21:01;4.13;;;2.72;;
60100;SDS011;45978;53.646;55.930;2022-09-30T06:22:03;5.45;;;2.63;;
60100;SDS011;45978;53.646;55.930;2022-09-30T06:23:05;5.22;;;2.65;;
60100;SDS011;45978;53.646;55.930;2022-09-30T06:24:06;2.08;;;1.65;;
60100;SDS011;45978;53.646;55.930;2022-09-30T06:25:13;2.83;;;1.10;;
60100;SDS011;45978;53.646;55.930;2022-09-30T06:26:15;4.20;;;1.10;;
60100;SDS011;45978;53.646;55.930;2022-09-30T06:27:20;1.73;;;1.30;;
60100;SDS011;45978;53.646;55.930;2022-09-30T06:28:22;0.75;;;0.75;;
60100;SDS011;45978;53.646;55.930;2022-09-30T06:29:24;1.20;;;1.10;;
60100;SDS011;45978;53.646;55.930;2022-09-30T06:30:25;2.95;;;1.45;;
60100;SDS011;45978;53.646;55.930;2022-09-30T06:31:28;1.92;;;1.23;;
60100;SDS011;45978;53.646;55.930;2022-09-30T06:32:30;2.47;;;0.80;;
60100;SDS011;45978;53.646;55.930;2022-09-30T06:33:32;2.80;;;1.05;;
60100;SDS011;45978;53.646;55.930;2022-09-30T06:34:34;9.57;;;1.63;;
60100;SDS011;45978;53.646;55.930;2022-09-30T06:35:35;2.83;;;1.23;;
60100;SDS011;45978;53.646;55.930;2022-09-30T06:36:36;4.25;;;1.10;;
60100;SDS011;45978;53.646;55.930;2022-09-30T06:37:38;1.48;;;0.93;;
60100;SDS011;45978;53.646;55.930;2022-09-30T06:38:40;1.02;;;0.70;;
60100;SDS011;45978;53.646;55.930;2022-09-30T06:39:42;5.82;;;1.10;;
60100;SDS011;45978;53.646;55.930;2022-09-30T06:40:44;0.90;;;0.90;;
60100;SDS011;45978;53.646;55.930;2022-09-30T06:41:49;5.72;;;0.90;;
60100;SDS011;45978;53.646;55.930;2022-09-30T06:42:58;3.13;;;1.20;;
60100;SDS011;45978;53.646;55.930;2022-09-30T06:44:00;2.08;;;1.02;;
60100;SDS011;45978;53.646;55.930;2022-09-30T06:45:02;1.45;;;1.02;;
60100;SDS011;45978;53.646;55.930;2022-09-30T06:46:05;4.80;;;1.00;;
60100;SDS011;45978;53.646;55.930;2022-09-30T06:47:06;4.35;;;1.17;;
60100;SDS011;45978;53.646;55.930;2022-09-30T06:48:08;2.00;;;1.33;;
60100;SDS011;45978;53.646;55.930;2022-09-30T06:49:09;1.00;;;1.00;;
60100;SDS011;45978;53.646;55.930;2022-09-30T06:50:11;3.65;;;1.20;;
60100;SDS011;45978;53.646;55.930;2022-09-30T06:51:12;2.85;;;1.58;;
60100;SDS011;45978;53.646;55.930;2022-09-30T06:52:14;1.55;;;1.45;;
60100;SDS011;45978;53.646;55.930;2022-09-30T06:53:16;4.43;;;1.90;;
60100;SDS011;45978;53.646;55.930;2022-09-30T06:54:18;4.88;;;1.17;;
60100;SDS011;45978;53.646;55.930;2022-09-30T06:55:20;2.25;;;1.23;;
60100;SDS011;45978;53.646;55.930;2022-09-30T06:56:24;8.60;;;1.95;;
60100;SDS011;45978;53.646;55.930;2022-09-30T06:57:26;2.28;;;1.00;;
60100;SDS011;45978;53.646;55.930;2022-09-30T06:58:27;4.57;;;1.05;;
60100;SDS011;45978;53.646;55.930;2022-09-30T06:59:28;2.28;;;1.35;;
60100;SDS011;45978;53.646;55.930;2022-09-30T07:00:29;0.85;;;0.85;;
60100;SDS011;45978;53.646;55.930;2022-09-30T07:01:30;2.95;;;1.58;;
60100;SDS011;45978;53.646;55.930;2022-09-30T07:02:31;5.65;;;1.98;;
60100;SDS011;45978;53.646;55.930;2022-09-30T07:03:34;0.90;;;0.90;;
60100;SDS011;45978;53.646;55.930;2022-09-30T07:04:35;0.80;;;0.80;;
60100;SDS011;45978;53.646;55.930;2022-09-30T07:05:36;4.60;;;1.08;;
60100;SDS011;45978;53.646;55.930;2022-09-30T07:06:38;1.63;;;1.05;;
60100;SDS011;45978;53.646;55.930;2022-09-30T07:07:39;2.22;;;0.93;;
60100;SDS011;45978;53.646;55.930;2022-09-30T07:08:41;1.45;;;1.20;;
60100;SDS011;45978;53.646;55.930;2022-09-30T07:09:42;1.48;;;1.10;;
60100;SDS011;45978;53.646;55.930;2022-09-30T07:10:45;0.63;;;0.63;;
60100;SDS011;45978;53.646;55.930;2022-09-30T07:11:47;1.00;;;0.88;;
60100;SDS011;45978;53.646;55.930;2022-09-30T07:12:51;1.02;;;0.73;;
60100;SDS011;45978;53.646;55.930;2022-09-30T07:13:52;2.58;;;1.10;;
60100;SDS011;45978;53.646;55.930;2022-09-30T07:14:54;3.13;;;1.00;;
60100;SDS011;45978;53.646;55.930;2022-09-30T07:15:59;1.70;;;1.10;;
60100;SDS011;45978;53.646;55.930;2022-09-30T07:17:01;3.13;;;1.02;;
60100;SDS011;45978;53.646;55.930;2022-09-30T07:18:04;5.70;;;1.13;;
60100;SDS011;45978;53.646;55.930;2022-09-30T07:19:06;1.50;;;0.90;;
60100;SDS011;45978;53.646;55.930;2022-09-30T07:20:09;4.80;;;0.90;;
60100;SDS011;45978;53.646;55.930;2022-09-30T07:21:11;3.50;;;0.80;;
60100;SDS011;45978;53.646;55.930;2022-09-30T07:22:15;0.50;;;0.50;;
60100;SDS011;45978;53.646;55.930;2022-09-30T07:23:31;2.63;;;0.70;;
60100;SDS011;45978;53.646;55.930;2022-09-30T07:24:33;2.50;;;1.02;;
60100;SDS011;45978;53.646;55.930;2022-09-30T07:25:35;4.93;;;0.65;;
60100;SDS011;45978;53.646;55.930;2022-09-30T07:26:36;1.80;;;0.95;;
60100;SDS011;45978;53.646;55.930;2022-09-30T07:27:37;4.47;;;1.15;;
60100;SDS011;45978;53.646;55.930;2022-09-30T07:28:38;0.88;;;0.88;;
60100;SDS011;45978;53.646;55.930;2022-09-30T07:29:40;0.82;;;0.70;;
60100;SDS011;45978;53.646;55.930;2022-09-30T07:30:42;2.83;;;0.88;;
60100;SDS011;45978;53.646;55.930;2022-09-30T07:31:44;1.73;;;0.70;;
60100;SDS011;45978;53.646;55.930;2022-09-30T07:32:46;1.55;;;0.70;;
60100;SDS011;45978;53.646;55.930;2022-09-30T07:33:47;7.65;;;1.35;;
60100;SDS011;45978;53.646;55.930;2022-09-30T07:34:52;5.90;;;0.80;;
60100;SDS011;45978;53.646;55.930;2022-09-30T07:35:54;0.82;;;0.70;;
60100;SDS011;45978;53.646;55.930;2022-09-30T07:36:56;1.98;;;0.50;;
60100;SDS011;45978;53.646;55.930;2022-09-30T07:37:58;2.65;;;1.13;;
60100;SDS011;45978;53.646;55.930;2022-09-30T07:39:01;2.55;;;1.20;;
60100;SDS011;45978;53.646;55.930;2022-09-30T07:40:05;1.50;;;1.40;;
60100;SDS011;45978;53.646;55.930;2022-09-30T07:41:23;1.15;;;0.90;;
60100;SDS011;45978;53.646;55.930;2022-09-30T07:42:27;3.90;;;1.00;;
60100;SDS011;45978;53.646;55.930;2022-09-30T07:43:30;2.30;;;1.02;;
60100;SDS011;45978;53.646;55.930;2022-09-30T07:44:39;1.70;;;0.63;;
60100;SDS011;45978;53.646;55.930;2022-09-30T07:46:21;3.90;;;0.88;;